sensor_id;sensor_type;location;lat;lon;timestamp;P1;durP1;ratioP1;P2;durP2;ratioP2
59824;SDS011;45703;50.898;6.054;2023-06-10T00:01:59;12.55;;;8.82;;
59824;SDS011;45703;50.898;6.054;2023-06-10T00:04:25;11.60;;;9.10;;
59824;SDS011;45703;50.898;6.054;2023-06-10T00:06:51;10.38;;;8.65;;
59824;SDS011;45703;50.898;6.054;2023-06-10T00:09:16;10.95;;;9.15;;
59824;SDS011;45703;50.898;6.054;2023-06-10T00:11:43;10.55;;;8.40;;
59824;SDS011;45703;50.898;6.054;2023-06-10T00:14:09;10.60;;;8.35;;
59824;SDS011;45703;50.898;6.054;2023-06-10T00:16:35;11.70;;;8.90;;
59824;SDS011;45703;50.898;6.054;2023-06-10T00:19:01;10.70;;;9.27;;
59824;SDS011;45703;50.898;6.054;2023-06-10T00:21:28;11.90;;;8.77;;
59824;SDS011;45703;50.898;6.054;2023-06-10T00:24:05;12.15;;;9.25;;
59824;SDS011;45703;50.898;6.054;2023-06-10T00:26:39;11.38;;;9.25;;
59824;SDS011;45703;50.898;6.054;2023-06-10T00:29:05;12.75;;;9.25;;
59824;SDS011;45703;50.898;6.054;2023-06-10T00:31:31;12.98;;;9.07;;
59824;SDS011;45703;50.898;6.054;2023-06-10T00:33:56;12.73;;;9.57;;
59824;SDS011;45703;50.898;6.054;2023-06-10T00:36:23;11.45;;;9.70;;
59824;SDS011;45703;50.898;6.054;2023-06-10T00:38:49;11.20;;;9.32;;
59824;SDS011;45703;50.898;6.054;2023-06-10T00:41:14;11.95;;;8.88;;
59824;SDS011;45703;50.898;6.054;2023-06-10T00:43:40;12.38;;;9.65;;
59824;SDS011;45703;50.898;6.054;2023-06-10T00:46:05;11.30;;;8.98;;
59824;SDS011;45703;50.898;6.054;2023-06-10T00:48:31;11.73;;;8.90;;
59824;SDS011;45703;50.898;6.054;2023-06-10T00:50:57;12.40;;;9.45;;
59824;SDS011;45703;50.898;6.054;2023-06-10T00:53:25;11.85;;;9.70;;
59824;SDS011;45703;50.898;6.054;2023-06-10T00:55:51;12.05;;;8.82;;
59824;SDS011;45703;50.898;6.054;2023-06-10T00:58:17;11.02;;;9.65;;
59824;SDS011;45703;50.898;6.054;2023-06-10T01:00:43;11.60;;;8.80;;
59824;SDS011;45703;50.898;6.054;2023-06-10T01:03:10;11.57;;;9.57;;
59824;SDS011;45703;50.898;6.054;2023-06-10T01:05:37;11.50;;;9.13;;
59824;SDS011;45703;50.898;6.054;2023-06-10T01:10:38;12.02;;;9.55;;
59824;SDS011;45703;50.898;6.054;2023-06-10T01:13:08;11.30;;;9.23;;
59824;SDS011;45703;50.898;6.054;2023-06-10T01:15:36;11.13;;;9.05;;
59824;SDS011;45703;50.898;6.054;2023-06-10T01:18:07;11.95;;;9.02;;
59824;SDS011;45703;50.898;6.054;2023-06-10T01:20:35;11.30;;;9.07;;
59824;SDS011;45703;50.898;6.054;2023-06-10T01:23:05;11.98;;;9.52;;
59824;SDS011;45703;50.898;6.054;2023-06-10T01:25:31;12.77;;;9.13;;
59824;SDS011;45703;50.898;6.054;2023-06-10T01:33:33;12.20;;;10.00;;
59824;SDS011;45703;50.898;6.054;2023-06-10T01:36:01;12.45;;;9.82;;
59824;SDS011;45703;50.898;6.054;2023-06-10T01:38:30;12.90;;;9.75;;
59824;SDS011;45703;50.898;6.054;2023-06-10T01:40:58;11.95;;;10.15;;
59824;SDS011;45703;50.898;6.054;2023-06-10T01:43:24;11.38;;;9.80;;
59824;SDS011;45703;50.898;6.054;2023-06-10T01:45:50;12.85;;;9.98;;
59824;SDS011;45703;50.898;6.054;2023-06-10T01:48:15;11.52;;;9.45;;
59824;SDS011;45703;50.898;6.054;2023-06-10T01:50:41;12.13;;;10.07;;
59824;SDS011;45703;50.898;6.054;2023-06-10T01:53:08;12.50;;;10.30;;
59824;SDS011;45703;50.898;6.054;2023-06-10T01:55:34;11.48;;;9.35;;
59824;SDS011;45703;50.898;6.054;2023-06-10T01:57:59;11.77;;;10.43;;
59824;SDS011;45703;50.898;6.054;2023-06-10T02:00:25;12.35;;;9.48;;
59824;SDS011;45703;50.898;6.054;2023-06-10T02:02:50;11.43;;;9.60;;
59824;SDS011;45703;50.898;6.054;2023-06-10T02:05:15;12.18;;;9.88;;
59824;SDS011;45703;50.898;6.054;2023-06-10T02:07:41;12.68;;;10.05;;
59824;SDS011;45703;50.898;6.054;2023-06-10T02:10:09;12.68;;;10.75;;
59824;SDS011;45703;50.898;6.054;2023-06-10T02:12:35;12.75;;;10.00;;
59824;SDS011;45703;50.898;6.054;2023-06-10T02:15:00;11.25;;;9.50;;
59824;SDS011;45703;50.898;6.054;2023-06-10T02:17:25;13.68;;;9.98;;
59824;SDS011;45703;50.898;6.054;2023-06-10T02:19:51;11.40;;;9.82;;
59824;SDS011;45703;50.898;6.054;2023-06-10T02:22:23;12.27;;;9.90;;
59824;SDS011;45703;50.898;6.054;2023-06-10T02:24:48;13.02;;;9.90;;
59824;SDS011;45703;50.898;6.054;2023-06-10T02:27:15;12.57;;;9.85;;
59824;SDS011;45703;50.898;6.054;2023-06-10T02:29:41;13.38;;;10.52;;
59824;SDS011;45703;50.898;6.054;2023-06-10T02:32:07;13.35;;;9.85;;
59824;SDS011;45703;50.898;6.054;2023-06-10T02:34:32;13.65;;;10.00;;
59824;SDS011;45703;50.898;6.054;2023-06-10T02:36:58;12.40;;;9.98;;
59824;SDS011;45703;50.898;6.054;2023-06-10T02:39:24;11.23;;;9.55;;
59824;SDS011;45703;50.898;6.054;2023-06-10T02:41:49;13.38;;;10.20;;
59824;SDS011;45703;50.898;6.054;2023-06-10T02:44:15;12.85;;;10.55;;
59824;SDS011;45703;50.898;6.054;2023-06-10T02:46:40;14.32;;;10.15;;
59824;SDS011;45703;50.898;6.054;2023-06-10T02:49:06;12.38;;;9.73;;
59824;SDS011;45703;50.898;6.054;2023-06-10T02:51:31;12.13;;;10.13;;
59824;SDS011;45703;50.898;6.054;2023-06-10T02:53:56;12.25;;;10.57;;
59824;SDS011;45703;50.898;6.054;2023-06-10T02:56:22;14.68;;;10.80;;
59824;SDS011;45703;50.898;6.054;2023-06-10T02:58:47;11.70;;;10.05;;
59824;SDS011;45703;50.898;6.054;2023-06-10T03:01:13;12.80;;;10.50;;
59824;SDS011;45703;50.898;6.054;2023-06-10T03:03:39;12.38;;;10.20;;
59824;SDS011;45703;50.898;6.054;2023-06-10T03:06:07;12.93;;;10.40;;
59824;SDS011;45703;50.898;6.054;2023-06-10T03:08:35;12.02;;;10.23;;
59824;SDS011;45703;50.898;6.054;2023-06-10T03:11:02;12.55;;;9.85;;
59824;SDS011;45703;50.898;6.054;2023-06-10T03:13:27;12.68;;;10.05;;
59824;SDS011;45703;50.898;6.054;2023-06-10T03:15:52;12.05;;;10.05;;
59824;SDS011;45703;50.898;6.054;2023-06-10T03:18:18;13.98;;;10.88;;
59824;SDS011;45703;50.898;6.054;2023-06-10T03:20:43;12.55;;;10.43;;
59824;SDS011;45703;50.898;6.054;2023-06-10T03:23:09;14.27;;;9.82;;
59824;SDS011;45703;50.898;6.054;2023-06-10T03:25:35;13.32;;;10.35;;
59824;SDS011;45703;50.898;6.054;2023-06-10T03:28:00;13.25;;;10.75;;
59824;SDS011;45703;50.898;6.054;2023-06-10T03:30:27;11.75;;;10.43;;
59824;SDS011;45703;50.898;6.054;2023-06-10T03:32:52;12.25;;;10.13;;
59824;SDS011;45703;50.898;6.054;2023-06-10T03:35:18;13.27;;;10.43;;
59824;SDS011;45703;50.898;6.054;2023-06-10T03:37:43;13.35;;;10.45;;
59824;SDS011;45703;50.898;6.054;2023-06-10T03:40:09;12.18;;;10.15;;
59824;SDS011;45703;50.898;6.054;2023-06-10T03:42:35;14.73;;;10.45;;
59824;SDS011;45703;50.898;6.054;2023-06-10T03:45:00;13.13;;;10.20;;
59824;SDS011;45703;50.898;6.054;2023-06-10T03:47:32;11.98;;;9.32;;
59824;SDS011;45703;50.898;6.054;2023-06-10T03:49:59;12.32;;;10.32;;
59824;SDS011;45703;50.898;6.054;2023-06-10T03:52:25;11.32;;;9.65;;
59824;SDS011;45703;50.898;6.054;2023-06-10T03:54:50;12.88;;;10.00;;
59824;SDS011;45703;50.898;6.054;2023-06-10T03:57:16;14.10;;;11.00;;
59824;SDS011;45703;50.898;6.054;2023-06-10T03:59:41;13.00;;;10.00;;
59824;SDS011;45703;50.898;6.054;2023-06-10T04:02:06;12.23;;;9.95;;
59824;SDS011;45703;50.898;6.054;2023-06-10T04:04:33;12.93;;;9.73;;
59824;SDS011;45703;50.898;6.054;2023-06-10T04:06:59;11.93;;;9.73;;
59824;SDS011;45703;50.898;6.054;2023-06-10T04:09:25;11.88;;;10.15;;
59824;SDS011;45703;50.898;6.054;2023-06-10T04:11:50;11.52;;;9.77;;
59824;SDS011;45703;50.898;6.054;2023-06-10T04:14:16;11.35;;;9.57;;
59824;SDS011;45703;50.898;6.054;2023-06-10T04:16:41;12.13;;;9.45;;
59824;SDS011;45703;50.898;6.054;2023-06-10T04:19:07;12.30;;;10.10;;
59824;SDS011;45703;50.898;6.054;2023-06-10T04:21:33;11.88;;;10.02;;
59824;SDS011;45703;50.898;6.054;2023-06-10T04:23:58;12.98;;;10.10;;
59824;SDS011;45703;50.898;6.054;2023-06-10T04:26:24;11.80;;;9.23;;
59824;SDS011;45703;50.898;6.054;2023-06-10T04:28:50;13.40;;;10.98;;
59824;SDS011;45703;50.898;6.054;2023-06-10T04:31:16;11.88;;;10.18;;
59824;SDS011;45703;50.898;6.054;2023-06-10T04:33:41;12.20;;;9.75;;
59824;SDS011;45703;50.898;6.054;2023-06-10T04:36:07;11.88;;;9.50;;
59824;SDS011;45703;50.898;6.054;2023-06-10T04:38:32;15.35;;;10.25;;
59824;SDS011;45703;50.898;6.054;2023-06-10T04:40:58;12.10;;;10.15;;
59824;SDS011;45703;50.898;6.054;2023-06-10T04:43:24;12.90;;;9.73;;
59824;SDS011;45703;50.898;6.054;2023-06-10T04:45:49;12.00;;;9.80;;
59824;SDS011;45703;50.898;6.054;2023-06-10T04:48:14;13.40;;;10.50;;
59824;SDS011;45703;50.898;6.054;2023-06-10T04:50:40;13.38;;;9.68;;
59824;SDS011;45703;50.898;6.054;2023-06-10T04:53:05;12.38;;;9.85;;
59824;SDS011;45703;50.898;6.054;2023-06-10T04:55:31;13.65;;;9.85;;
59824;SDS011;45703;50.898;6.054;2023-06-10T04:57:58;12.45;;;9.70;;
59824;SDS011;45703;50.898;6.054;2023-06-10T05:00:23;13.70;;;11.10;;
59824;SDS011;45703;50.898;6.054;2023-06-10T05:02:49;13.13;;;10.52;;
59824;SDS011;45703;50.898;6.054;2023-06-10T05:05:15;12.27;;;10.50;;
59824;SDS011;45703;50.898;6.054;2023-06-10T05:07:42;13.45;;;10.02;;
59824;SDS011;45703;50.898;6.054;2023-06-10T05:10:07;12.65;;;10.07;;
59824;SDS011;45703;50.898;6.054;2023-06-10T05:12:33;14.27;;;10.75;;
59824;SDS011;45703;50.898;6.054;2023-06-10T05:14:58;12.75;;;10.48;;
59824;SDS011;45703;50.898;6.054;2023-06-10T05:17:24;14.07;;;10.00;;
59824;SDS011;45703;50.898;6.054;2023-06-10T05:19:50;13.63;;;10.07;;
59824;SDS011;45703;50.898;6.054;2023-06-10T05:22:16;12.75;;;10.23;;
59824;SDS011;45703;50.898;6.054;2023-06-10T05:24:43;13.25;;;11.30;;
59824;SDS011;45703;50.898;6.054;2023-06-10T05:27:11;13.25;;;10.20;;
59824;SDS011;45703;50.898;6.054;2023-06-10T05:29:37;13.63;;;10.15;;
59824;SDS011;45703;50.898;6.054;2023-06-10T05:32:03;14.68;;;10.95;;
59824;SDS011;45703;50.898;6.054;2023-06-10T05:34:29;12.43;;;10.95;;
59824;SDS011;45703;50.898;6.054;2023-06-10T05:36:55;13.60;;;10.40;;
59824;SDS011;45703;50.898;6.054;2023-06-10T05:39:20;12.02;;;9.10;;
59824;SDS011;45703;50.898;6.054;2023-06-10T05:41:45;12.98;;;10.52;;
59824;SDS011;45703;50.898;6.054;2023-06-10T05:44:11;12.73;;;9.90;;
59824;SDS011;45703;50.898;6.054;2023-06-10T05:46:36;14.82;;;10.00;;
59824;SDS011;45703;50.898;6.054;2023-06-10T05:49:02;13.70;;;9.85;;
59824;SDS011;45703;50.898;6.054;2023-06-10T05:51:28;12.70;;;9.63;;
59824;SDS011;45703;50.898;6.054;2023-06-10T05:53:56;13.18;;;10.38;;
59824;SDS011;45703;50.898;6.054;2023-06-10T05:56:24;12.00;;;9.00;;
59824;SDS011;45703;50.898;6.054;2023-06-10T05:58:51;12.27;;;10.00;;
59824;SDS011;45703;50.898;6.054;2023-06-10T06:01:17;12.57;;;10.25;;
59824;SDS011;45703;50.898;6.054;2023-06-10T06:03:42;11.93;;;9.80;;
59824;SDS011;45703;50.898;6.054;2023-06-10T06:06:08;12.27;;;9.85;;
59824;SDS011;45703;50.898;6.054;2023-06-10T06:08:33;11.90;;;10.20;;
59824;SDS011;45703;50.898;6.054;2023-06-10T06:10:59;11.40;;;9.15;;
59824;SDS011;45703;50.898;6.054;2023-06-10T06:13:24;13.20;;;9.95;;
59824;SDS011;45703;50.898;6.054;2023-06-10T06:15:50;11.73;;;9.25;;
59824;SDS011;45703;50.898;6.054;2023-06-10T06:18:15;12.80;;;9.65;;
59824;SDS011;45703;50.898;6.054;2023-06-10T06:20:41;14.10;;;9.50;;
59824;SDS011;45703;50.898;6.054;2023-06-10T06:23:06;10.95;;;9.38;;
59824;SDS011;45703;50.898;6.054;2023-06-10T06:25:34;12.00;;;9.60;;
59824;SDS011;45703;50.898;6.054;2023-06-10T06:28:00;13.32;;;9.18;;
59824;SDS011;45703;50.898;6.054;2023-06-10T06:30:26;11.73;;;9.25;;
59824;SDS011;45703;50.898;6.054;2023-06-10T06:32:51;12.27;;;10.13;;
59824;SDS011;45703;50.898;6.054;2023-06-10T06:35:17;11.70;;;9.68;;
59824;SDS011;45703;50.898;6.054;2023-06-10T06:37:42;12.45;;;9.73;;
59824;SDS011;45703;50.898;6.054;2023-06-10T06:40:08;12.02;;;8.88;;
59824;SDS011;45703;50.898;6.054;2023-06-10T06:42:33;12.27;;;9.35;;
59824;SDS011;45703;50.898;6.054;2023-06-10T06:44:59;11.85;;;9.40;;
59824;SDS011;45703;50.898;6.054;2023-06-10T06:47:24;11.40;;;9.18;;
59824;SDS011;45703;50.898;6.054;2023-06-10T06:49:51;13.13;;;9.38;;
59824;SDS011;45703;50.898;6.054;2023-06-10T06:52:16;12.48;;;9.07;;
59824;SDS011;45703;50.898;6.054;2023-06-10T06:54:42;11.13;;;9.23;;
59824;SDS011;45703;50.898;6.054;2023-06-10T06:57:08;13.23;;;9.02;;
59824;SDS011;45703;50.898;6.054;2023-06-10T06:59:33;10.73;;;8.30;;
59824;SDS011;45703;50.898;6.054;2023-06-10T07:01:59;11.60;;;9.27;;
59824;SDS011;45703;50.898;6.054;2023-06-10T07:04:24;10.57;;;8.20;;
59824;SDS011;45703;50.898;6.054;2023-06-10T07:06:50;10.90;;;8.63;;
59824;SDS011;45703;50.898;6.054;2023-06-10T07:09:16;10.93;;;8.55;;
59824;SDS011;45703;50.898;6.054;2023-06-10T07:11:41;10.52;;;8.55;;
59824;SDS011;45703;50.898;6.054;2023-06-10T07:14:07;12.52;;;8.20;;
59824;SDS011;45703;50.898;6.054;2023-06-10T07:16:32;11.80;;;8.80;;
59824;SDS011;45703;50.898;6.054;2023-06-10T07:18:58;10.43;;;8.52;;
59824;SDS011;45703;50.898;6.054;2023-06-10T07:21:23;10.98;;;8.60;;
59824;SDS011;45703;50.898;6.054;2023-06-10T07:23:49;12.20;;;8.95;;
59824;SDS011;45703;50.898;6.054;2023-06-10T07:26:14;10.85;;;8.32;;
59824;SDS011;45703;50.898;6.054;2023-06-10T07:28:40;9.82;;;7.75;;
59824;SDS011;45703;50.898;6.054;2023-06-10T07:31:06;11.20;;;8.20;;
59824;SDS011;45703;50.898;6.054;2023-06-10T07:33:32;10.43;;;7.95;;
59824;SDS011;45703;50.898;6.054;2023-06-10T07:35:58;13.02;;;9.05;;
59824;SDS011;45703;50.898;6.054;2023-06-10T07:38:26;11.45;;;8.30;;
59824;SDS011;45703;50.898;6.054;2023-06-10T07:40:52;11.88;;;8.15;;
59824;SDS011;45703;50.898;6.054;2023-06-10T07:43:17;11.30;;;7.72;;
59824;SDS011;45703;50.898;6.054;2023-06-10T07:45:43;9.98;;;7.43;;
59824;SDS011;45703;50.898;6.054;2023-06-10T07:48:09;11.15;;;7.60;;
59824;SDS011;45703;50.898;6.054;2023-06-10T07:50:35;9.85;;;7.40;;
59824;SDS011;45703;50.898;6.054;2023-06-10T07:53:00;11.73;;;7.55;;
59824;SDS011;45703;50.898;6.054;2023-06-10T07:55:26;10.52;;;7.15;;
59824;SDS011;45703;50.898;6.054;2023-06-10T07:57:52;11.50;;;7.20;;
59824;SDS011;45703;50.898;6.054;2023-06-10T08:00:19;11.90;;;8.13;;
59824;SDS011;45703;50.898;6.054;2023-06-10T08:02:45;12.23;;;7.35;;
59824;SDS011;45703;50.898;6.054;2023-06-10T08:05:11;12.40;;;7.53;;
59824;SDS011;45703;50.898;6.054;2023-06-10T08:07:37;10.23;;;7.53;;
59824;SDS011;45703;50.898;6.054;2023-06-10T08:10:02;10.15;;;7.15;;
59824;SDS011;45703;50.898;6.054;2023-06-10T08:12:29;9.80;;;7.32;;
59824;SDS011;45703;50.898;6.054;2023-06-10T08:14:54;9.80;;;6.85;;
59824;SDS011;45703;50.898;6.054;2023-06-10T08:17:20;10.10;;;7.15;;
59824;SDS011;45703;50.898;6.054;2023-06-10T08:19:46;10.80;;;7.40;;
59824;SDS011;45703;50.898;6.054;2023-06-10T08:22:11;9.73;;;7.38;;
59824;SDS011;45703;50.898;6.054;2023-06-10T08:24:37;10.50;;;7.60;;
59824;SDS011;45703;50.898;6.054;2023-06-10T08:27:02;10.50;;;8.05;;
59824;SDS011;45703;50.898;6.054;2023-06-10T08:29:28;11.43;;;7.80;;
59824;SDS011;45703;50.898;6.054;2023-06-10T08:31:55;10.20;;;7.28;;
59824;SDS011;45703;50.898;6.054;2023-06-10T08:34:20;10.43;;;6.93;;
59824;SDS011;45703;50.898;6.054;2023-06-10T08:36:45;12.15;;;7.53;;
59824;SDS011;45703;50.898;6.054;2023-06-10T08:39:11;11.68;;;8.20;;
59824;SDS011;45703;50.898;6.054;2023-06-10T08:41:37;12.27;;;7.65;;
59824;SDS011;45703;50.898;6.054;2023-06-10T08:44:10;10.60;;;7.40;;
59824;SDS011;45703;50.898;6.054;2023-06-10T08:46:37;10.52;;;7.63;;
59824;SDS011;45703;50.898;6.054;2023-06-10T08:49:05;11.63;;;7.80;;
59824;SDS011;45703;50.898;6.054;2023-06-10T08:51:34;10.40;;;7.38;;
59824;SDS011;45703;50.898;6.054;2023-06-10T08:54:02;9.45;;;7.40;;
59824;SDS011;45703;50.898;6.054;2023-06-10T08:56:33;10.43;;;7.30;;
59824;SDS011;45703;50.898;6.054;2023-06-10T08:59:04;10.25;;;7.90;;
59824;SDS011;45703;50.898;6.054;2023-06-10T09:01:30;9.43;;;6.97;;
59824;SDS011;45703;50.898;6.054;2023-06-10T09:03:56;9.52;;;6.88;;
59824;SDS011;45703;50.898;6.054;2023-06-10T09:06:24;9.63;;;6.85;;
59824;SDS011;45703;50.898;6.054;2023-06-10T09:08:50;9.88;;;7.25;;
59824;SDS011;45703;50.898;6.054;2023-06-10T09:11:16;11.55;;;7.90;;
59824;SDS011;45703;50.898;6.054;2023-06-10T09:13:41;10.32;;;7.22;;
59824;SDS011;45703;50.898;6.054;2023-06-10T09:16:07;9.82;;;7.38;;
59824;SDS011;45703;50.898;6.054;2023-06-10T09:18:32;11.15;;;7.53;;
59824;SDS011;45703;50.898;6.054;2023-06-10T09:20:59;10.63;;;7.18;;
59824;SDS011;45703;50.898;6.054;2023-06-10T09:23:25;10.13;;;7.00;;
59824;SDS011;45703;50.898;6.054;2023-06-10T09:25:57;10.20;;;7.22;;
59824;SDS011;45703;50.898;6.054;2023-06-10T09:28:23;10.65;;;7.03;;
59824;SDS011;45703;50.898;6.054;2023-06-10T09:30:49;10.27;;;7.47;;
59824;SDS011;45703;50.898;6.054;2023-06-10T09:33:14;13.15;;;7.05;;
59824;SDS011;45703;50.898;6.054;2023-06-10T09:35:50;10.60;;;7.25;;
59824;SDS011;45703;50.898;6.054;2023-06-10T09:38:21;10.20;;;7.20;;
59824;SDS011;45703;50.898;6.054;2023-06-10T09:40:51;9.95;;;7.30;;
59824;SDS011;45703;50.898;6.054;2023-06-10T09:43:17;12.18;;;8.00;;
59824;SDS011;45703;50.898;6.054;2023-06-10T09:45:43;9.75;;;7.57;;
59824;SDS011;45703;50.898;6.054;2023-06-10T09:48:09;10.05;;;7.70;;
59824;SDS011;45703;50.898;6.054;2023-06-10T09:50:41;11.65;;;7.65;;
59824;SDS011;45703;50.898;6.054;2023-06-10T09:53:09;12.05;;;7.68;;
59824;SDS011;45703;50.898;6.054;2023-06-10T09:55:37;10.27;;;7.30;;
59824;SDS011;45703;50.898;6.054;2023-06-10T09:58:03;11.43;;;7.72;;
59824;SDS011;45703;50.898;6.054;2023-06-10T10:00:31;9.50;;;6.63;;
59824;SDS011;45703;50.898;6.054;2023-06-10T10:02:57;9.88;;;7.78;;
59824;SDS011;45703;50.898;6.054;2023-06-10T10:05:23;9.57;;;7.20;;
59824;SDS011;45703;50.898;6.054;2023-06-10T10:07:49;11.18;;;7.90;;
59824;SDS011;45703;50.898;6.054;2023-06-10T10:10:16;10.98;;;7.65;;
59824;SDS011;45703;50.898;6.054;2023-06-10T10:12:42;10.05;;;7.10;;
59824;SDS011;45703;50.898;6.054;2023-06-10T10:15:08;11.02;;;7.35;;
59824;SDS011;45703;50.898;6.054;2023-06-10T10:17:58;10.20;;;7.80;;
59824;SDS011;45703;50.898;6.054;2023-06-10T10:20:31;9.02;;;7.55;;
59824;SDS011;45703;50.898;6.054;2023-06-10T10:22:59;10.30;;;7.97;;
59824;SDS011;45703;50.898;6.054;2023-06-10T10:25:29;10.60;;;7.93;;
59824;SDS011;45703;50.898;6.054;2023-06-10T10:28:08;10.75;;;7.72;;
59824;SDS011;45703;50.898;6.054;2023-06-10T10:33:29;11.18;;;8.38;;
59824;SDS011;45703;50.898;6.054;2023-06-10T10:35:58;9.25;;;6.88;;
59824;SDS011;45703;50.898;6.054;2023-06-10T10:38:25;11.35;;;8.30;;
59824;SDS011;45703;50.898;6.054;2023-06-10T10:40:53;10.85;;;7.50;;
59824;SDS011;45703;50.898;6.054;2023-06-10T10:43:21;10.70;;;8.20;;
59824;SDS011;45703;50.898;6.054;2023-06-10T10:45:57;9.40;;;6.95;;
59824;SDS011;45703;50.898;6.054;2023-06-10T10:48:26;9.75;;;7.47;;
59824;SDS011;45703;50.898;6.054;2023-06-10T10:50:58;11.90;;;8.38;;
59824;SDS011;45703;50.898;6.054;2023-06-10T10:53:24;10.38;;;7.97;;
59824;SDS011;45703;50.898;6.054;2023-06-10T10:58:29;10.32;;;8.27;;
59824;SDS011;45703;50.898;6.054;2023-06-10T11:00:55;11.45;;;8.18;;
59824;SDS011;45703;50.898;6.054;2023-06-10T11:03:20;11.38;;;8.40;;
59824;SDS011;45703;50.898;6.054;2023-06-10T11:05:46;9.48;;;7.63;;
59824;SDS011;45703;50.898;6.054;2023-06-10T11:08:14;9.88;;;8.38;;
59824;SDS011;45703;50.898;6.054;2023-06-10T11:11:00;11.35;;;8.25;;
59824;SDS011;45703;50.898;6.054;2023-06-10T11:13:32;10.02;;;8.18;;
59824;SDS011;45703;50.898;6.054;2023-06-10T11:15:57;10.10;;;8.23;;
59824;SDS011;45703;50.898;6.054;2023-06-10T11:18:24;11.10;;;8.40;;
59824;SDS011;45703;50.898;6.054;2023-06-10T11:31:19;12.80;;;8.73;;
59824;SDS011;45703;50.898;6.054;2023-06-10T11:33:46;11.48;;;8.60;;
59824;SDS011;45703;50.898;6.054;2023-06-10T11:36:13;10.75;;;7.97;;
59824;SDS011;45703;50.898;6.054;2023-06-10T11:38:40;11.10;;;8.63;;
59824;SDS011;45703;50.898;6.054;2023-06-10T11:41:06;10.20;;;8.13;;
59824;SDS011;45703;50.898;6.054;2023-06-10T11:43:32;11.35;;;9.10;;
59824;SDS011;45703;50.898;6.054;2023-06-10T11:45:58;11.52;;;8.48;;
59824;SDS011;45703;50.898;6.054;2023-06-10T11:48:25;10.50;;;8.00;;
59824;SDS011;45703;50.898;6.054;2023-06-10T11:50:53;11.27;;;8.27;;
59824;SDS011;45703;50.898;6.054;2023-06-10T11:53:19;10.88;;;8.57;;
59824;SDS011;45703;50.898;6.054;2023-06-10T11:55:45;12.05;;;8.30;;
59824;SDS011;45703;50.898;6.054;2023-06-10T11:58:15;10.52;;;8.15;;
59824;SDS011;45703;50.898;6.054;2023-06-10T12:03:14;10.43;;;8.00;;
59824;SDS011;45703;50.898;6.054;2023-06-10T12:05:40;10.85;;;7.93;;
59824;SDS011;45703;50.898;6.054;2023-06-10T12:08:09;11.07;;;8.65;;
59824;SDS011;45703;50.898;6.054;2023-06-10T12:10:41;10.82;;;7.93;;
59824;SDS011;45703;50.898;6.054;2023-06-10T12:13:10;9.68;;;7.68;;
59824;SDS011;45703;50.898;6.054;2023-06-10T12:15:36;9.75;;;7.32;;
59824;SDS011;45703;50.898;6.054;2023-06-10T12:18:02;9.43;;;7.18;;
59824;SDS011;45703;50.898;6.054;2023-06-10T12:20:29;8.95;;;7.13;;
59824;SDS011;45703;50.898;6.054;2023-06-10T12:22:57;9.93;;;7.23;;
59824;SDS011;45703;50.898;6.054;2023-06-10T12:25:27;9.02;;;6.88;;
59824;SDS011;45703;50.898;6.054;2023-06-10T12:27:56;10.20;;;7.35;;
59824;SDS011;45703;50.898;6.054;2023-06-10T12:30:23;9.53;;;7.33;;
59824;SDS011;45703;50.898;6.054;2023-06-10T12:32:51;9.50;;;7.65;;
59824;SDS011;45703;50.898;6.054;2023-06-10T12:35:21;10.40;;;7.80;;
59824;SDS011;45703;50.898;6.054;2023-06-10T12:37:54;10.60;;;7.25;;
59824;SDS011;45703;50.898;6.054;2023-06-10T12:42:56;9.32;;;7.55;;
59824;SDS011;45703;50.898;6.054;2023-06-10T12:45:35;10.13;;;7.68;;
59824;SDS011;45703;50.898;6.054;2023-06-10T12:48:05;9.10;;;7.45;;
59824;SDS011;45703;50.898;6.054;2023-06-10T12:50:32;9.70;;;7.03;;
59824;SDS011;45703;50.898;6.054;2023-06-10T12:52:59;10.52;;;7.60;;
59824;SDS011;45703;50.898;6.054;2023-06-10T12:55:25;9.98;;;7.75;;
59824;SDS011;45703;50.898;6.054;2023-06-10T12:57:51;9.57;;;7.60;;
59824;SDS011;45703;50.898;6.054;2023-06-10T13:00:21;13.18;;;7.72;;
59824;SDS011;45703;50.898;6.054;2023-06-10T13:02:50;10.02;;;7.10;;
59824;SDS011;45703;50.898;6.054;2023-06-10T13:05:17;9.95;;;7.80;;
59824;SDS011;45703;50.898;6.054;2023-06-10T13:07:43;9.50;;;7.53;;
59824;SDS011;45703;50.898;6.054;2023-06-10T13:10:12;10.02;;;7.53;;
59824;SDS011;45703;50.898;6.054;2023-06-10T13:12:38;9.25;;;7.20;;
59824;SDS011;45703;50.898;6.054;2023-06-10T13:15:06;9.65;;;7.18;;
59824;SDS011;45703;50.898;6.054;2023-06-10T13:17:33;9.32;;;7.20;;
59824;SDS011;45703;50.898;6.054;2023-06-10T13:20:04;8.98;;;6.38;;
59824;SDS011;45703;50.898;6.054;2023-06-10T13:22:33;10.23;;;7.28;;
59824;SDS011;45703;50.898;6.054;2023-06-10T13:25:04;10.48;;;7.65;;
59824;SDS011;45703;50.898;6.054;2023-06-10T13:27:32;10.35;;;7.63;;
59824;SDS011;45703;50.898;6.054;2023-06-10T13:29:58;10.18;;;8.02;;
59824;SDS011;45703;50.898;6.054;2023-06-10T13:32:23;9.35;;;8.00;;
59824;SDS011;45703;50.898;6.054;2023-06-10T13:34:49;10.02;;;8.05;;
59824;SDS011;45703;50.898;6.054;2023-06-10T13:37:14;10.07;;;7.95;;
59824;SDS011;45703;50.898;6.054;2023-06-10T13:39:43;10.32;;;8.15;;
59824;SDS011;45703;50.898;6.054;2023-06-10T13:42:09;10.80;;;9.25;;
59824;SDS011;45703;50.898;6.054;2023-06-10T13:44:34;10.45;;;8.75;;
59824;SDS011;45703;50.898;6.054;2023-06-10T13:47:04;10.23;;;8.93;;
59824;SDS011;45703;50.898;6.054;2023-06-10T13:49:33;9.98;;;8.57;;
59824;SDS011;45703;50.898;6.054;2023-06-10T13:51:58;11.30;;;9.23;;
59824;SDS011;45703;50.898;6.054;2023-06-10T13:54:23;11.82;;;9.38;;
59824;SDS011;45703;50.898;6.054;2023-06-10T13:56:49;11.93;;;8.68;;
59824;SDS011;45703;50.898;6.054;2023-06-10T13:59:14;10.82;;;8.88;;
59824;SDS011;45703;50.898;6.054;2023-06-10T14:01:40;11.52;;;9.40;;
59824;SDS011;45703;50.898;6.054;2023-06-10T14:04:06;10.82;;;9.05;;
59824;SDS011;45703;50.898;6.054;2023-06-10T14:06:32;11.23;;;8.40;;
59824;SDS011;45703;50.898;6.054;2023-06-10T14:08:58;13.23;;;9.57;;
59824;SDS011;45703;50.898;6.054;2023-06-10T14:11:27;12.35;;;8.82;;
59824;SDS011;45703;50.898;6.054;2023-06-10T14:13:52;10.20;;;8.57;;
59824;SDS011;45703;50.898;6.054;2023-06-10T14:16:18;10.27;;;8.13;;
59824;SDS011;45703;50.898;6.054;2023-06-10T14:18:43;10.10;;;9.00;;
59824;SDS011;45703;50.898;6.054;2023-06-10T14:21:09;10.00;;;8.40;;
59824;SDS011;45703;50.898;6.054;2023-06-10T14:23:34;11.02;;;8.95;;
59824;SDS011;45703;50.898;6.054;2023-06-10T14:26:00;10.27;;;8.90;;
59824;SDS011;45703;50.898;6.054;2023-06-10T14:28:27;11.05;;;8.60;;
59824;SDS011;45703;50.898;6.054;2023-06-10T14:30:52;11.38;;;8.93;;
59824;SDS011;45703;50.898;6.054;2023-06-10T14:33:18;9.60;;;8.40;;
59824;SDS011;45703;50.898;6.054;2023-06-10T14:35:43;9.90;;;8.40;;
59824;SDS011;45703;50.898;6.054;2023-06-10T14:38:09;9.90;;;8.48;;
59824;SDS011;45703;50.898;6.054;2023-06-10T14:40:37;11.18;;;8.15;;
59824;SDS011;45703;50.898;6.054;2023-06-10T14:43:02;10.30;;;8.73;;
59824;SDS011;45703;50.898;6.054;2023-06-10T14:45:34;11.88;;;7.97;;
59824;SDS011;45703;50.898;6.054;2023-06-10T14:48:03;10.88;;;8.00;;
59824;SDS011;45703;50.898;6.054;2023-06-10T14:50:29;10.65;;;7.97;;
59824;SDS011;45703;50.898;6.054;2023-06-10T14:52:54;10.00;;;8.20;;
59824;SDS011;45703;50.898;6.054;2023-06-10T14:55:20;9.65;;;7.88;;
59824;SDS011;45703;50.898;6.054;2023-06-10T14:57:47;10.35;;;8.60;;
59824;SDS011;45703;50.898;6.054;2023-06-10T15:00:13;10.85;;;8.30;;